createdAt,value
2018-05-29T00:01:11.220Z,8.63
2018-05-29T00:03:39.526Z,9.70
2018-05-29T00:06:07.831Z,9.03
2018-05-29T00:08:36.160Z,9.13
2018-05-29T00:11:04.630Z,8.63
2018-05-29T00:13:33.746Z,9.13
2018-05-29T00:16:05.033Z,9.07
2018-05-29T00:18:33.378Z,8.77
2018-05-29T00:21:03.044Z,9.57
2018-05-29T00:23:31.466Z,9.33
2018-05-29T00:26:01.642Z,9.07
2018-05-29T00:28:30.138Z,8.90
2018-05-29T00:30:58.473Z,9.90
2018-05-29T00:33:26.785Z,10.90
2018-05-29T00:35:56.217Z,11.37
2018-05-29T00:38:24.559Z,10.07
2018-05-29T00:40:52.891Z,8.50
2018-05-29T00:43:21.194Z,9.97
2018-05-29T00:45:49.556Z,8.43
2018-05-29T00:48:18.651Z,8.90
2018-05-29T00:50:47.220Z,10.60
2018-05-29T00:53:15.555Z,12.03
2018-05-29T00:55:43.958Z,9.57
2018-05-29T00:58:12.300Z,9.57
2018-05-29T01:00:41.382Z,9.00
2018-05-29T01:03:10.472Z,9.03
2018-05-29T01:05:38.783Z,10.27
2018-05-29T01:08:07.894Z,8.97
2018-05-29T01:10:36.251Z,9.87
2018-05-29T01:13:04.546Z,8.77
2018-05-29T01:15:33.647Z,10.50
2018-05-29T01:18:01.969Z,10.57
2018-05-29T01:20:30.289Z,10.87
2018-05-29T01:22:59.390Z,10.53
2018-05-29T01:25:28.485Z,11.13
2018-05-29T01:27:56.791Z,10.17
2018-05-29T01:30:25.146Z,9.27
2018-05-29T01:32:53.474Z,11.83
2018-05-29T01:35:21.792Z,9.53
2018-05-29T01:37:50.141Z,10.47
2018-05-29T01:40:18.464Z,12.80
2018-05-29T01:42:46.826Z,10.67
2018-05-29T01:45:15.928Z,11.73
2018-05-29T01:47:44.284Z,10.10
2018-05-29T01:50:12.610Z,10.10
2018-05-29T01:52:40.956Z,10.03
2018-05-29T01:55:09.284Z,10.70
2018-05-29T01:57:38.361Z,9.77
2018-05-29T02:00:06.708Z,11.43
2018-05-29T02:02:35.029Z,10.87
2018-05-29T02:05:03.382Z,9.93
2018-05-29T02:07:31.698Z,10.23
2018-05-29T02:10:00.106Z,10.13
2018-05-29T02:12:29.171Z,9.43
2018-05-29T02:14:57.498Z,9.57
2018-05-29T02:17:25.811Z,10.37
2018-05-29T02:19:54.154Z,11.47
2018-05-29T02:22:22.620Z,9.97
2018-05-29T02:24:50.943Z,11.93
2018-05-29T02:27:19.263Z,9.83
2018-05-29T02:29:47.614Z,12.87
2018-05-29T02:32:15.988Z,9.03
2018-05-29T02:34:44.307Z,10.03
2018-05-29T02:37:12.653Z,10.80
2018-05-29T02:39:40.971Z,14.73
2018-05-29T02:42:09.292Z,12.13
2018-05-29T02:44:38.626Z,13.30
2018-05-29T02:47:06.937Z,11.30
2018-05-29T02:49:35.297Z,11.00
2018-05-29T02:52:03.633Z,15.63
2018-05-29T02:54:32.755Z,10.37
2018-05-29T02:57:01.048Z,12.93
2018-05-29T02:59:29.410Z,13.67
2018-05-29T03:01:57.812Z,11.63
2018-05-29T03:04:26.124Z,10.70
2018-05-29T03:06:55.302Z,11.53
2018-05-29T03:09:23.624Z,15.60
2018-05-29T03:11:53.085Z,11.70
2018-05-29T03:14:21.595Z,11.90
2018-05-29T03:16:50.048Z,11.20
2018-05-29T03:19:18.507Z,11.17
2018-05-29T03:21:47.625Z,11.13
2018-05-29T03:24:17.599Z,11.50
2018-05-29T03:26:47.015Z,14.13
2018-05-29T03:29:15.342Z,11.90
2018-05-29T03:31:43.659Z,11.70
2018-05-29T03:34:11.999Z,13.97
2018-05-29T03:36:40.318Z,13.23
2018-05-29T03:39:08.646Z,12.40
2018-05-29T03:41:36.971Z,15.33
2018-05-29T03:44:05.335Z,12.60
2018-05-29T03:46:33.656Z,12.87
2018-05-29T03:49:02.010Z,11.33
2018-05-29T03:51:30.331Z,10.63
2018-05-29T03:53:59.420Z,10.83
2018-05-29T03:56:27.754Z,11.57
2018-05-29T03:58:56.116Z,11.33
2018-05-29T04:01:24.466Z,10.93
2018-05-29T04:03:52.774Z,11.27
2018-05-29T04:06:21.211Z,11.37
2018-05-29T04:08:49.546Z,12.20
2018-05-29T04:11:18.650Z,11.27
2018-05-29T04:13:46.976Z,11.77
2018-05-29T04:16:15.312Z,10.33
2018-05-29T04:18:43.649Z,10.97
2018-05-29T04:21:12.456Z,12.25
2018-05-29T04:23:42.556Z,12.33
2018-05-29T04:26:11.572Z,12.50
2018-05-29T04:28:39.955Z,14.40
2018-05-29T04:31:08.262Z,10.67
2018-05-29T04:33:36.618Z,11.27
2018-05-29T04:36:04.936Z,10.33
2018-05-29T04:38:33.258Z,10.37
2018-05-29T04:41:01.617Z,13.73
2018-05-29T04:43:29.990Z,14.07
2018-05-29T04:45:58.323Z,9.43
2018-05-29T04:48:26.643Z,10.37
2018-05-29T04:50:54.993Z,10.80
2018-05-29T04:53:24.085Z,9.13
2018-05-29T04:55:52.459Z,9.07
2018-05-29T04:58:20.790Z,10.17
2018-05-29T05:00:49.178Z,12.60
2018-05-29T05:03:17.538Z,11.33
2018-05-29T05:05:46.601Z,9.90
2018-05-29T05:08:14.995Z,15.20
2018-05-29T05:10:43.341Z,10.07
2018-05-29T05:13:11.710Z,11.03
2018-05-29T05:15:40.030Z,9.93
2018-05-29T05:18:08.381Z,13.57
2018-05-29T05:20:36.691Z,9.20
2018-05-29T05:23:05.019Z,8.63
2018-05-29T05:25:33.363Z,10.47
2018-05-29T05:28:01.690Z,10.90
2018-05-29T05:30:30.053Z,10.97
2018-05-29T05:32:59.131Z,11.63
2018-05-29T05:35:28.225Z,11.07
2018-05-29T05:37:56.525Z,8.67
2018-05-29T05:40:25.629Z,8.73
2018-05-29T05:42:54.713Z,10.07
2018-05-29T05:45:23.048Z,13.70
2018-05-29T05:47:51.377Z,11.30
2018-05-29T05:50:20.455Z,10.17
2018-05-29T05:52:48.878Z,8.93
2018-05-29T05:55:17.162Z,10.77
2018-05-29T05:57:46.740Z,9.20
2018-05-29T06:00:15.045Z,9.40
2018-05-29T06:02:45.370Z,11.17
2018-05-29T06:05:13.875Z,10.90
2018-05-29T06:07:42.206Z,8.67
2018-05-29T06:10:10.594Z,8.20
2018-05-29T06:12:39.141Z,6.53
2018-05-29T06:15:07.471Z,8.30
2018-05-29T06:17:35.805Z,6.30
2018-05-29T06:20:04.459Z,6.57
2018-05-29T06:22:33.533Z,6.10
2018-05-29T06:25:01.834Z,6.83
2018-05-29T06:27:30.955Z,6.90
2018-05-29T06:29:59.336Z,6.53
2018-05-29T06:32:28.421Z,6.63
2018-05-29T06:34:57.521Z,10.60
2018-05-29T06:37:25.838Z,5.93
2018-05-29T06:39:54.145Z,6.80
2018-05-29T06:42:22.488Z,8.87
2018-05-29T06:44:50.804Z,6.70
2018-05-29T06:47:19.148Z,8.50
2018-05-29T06:49:47.481Z,9.43
2018-05-29T06:52:16.593Z,6.50
2018-05-29T06:54:44.891Z,8.10
2018-05-29T06:57:13.991Z,11.70
2018-05-29T06:59:42.323Z,6.90
2018-05-29T07:02:10.692Z,5.15
2018-05-29T07:04:39.073Z,9.00
2018-05-29T07:07:07.406Z,8.38
2018-05-29T07:09:36.534Z,9.55
2018-05-29T07:12:04.960Z,8.68
2018-05-29T07:14:33.318Z,5.45
2018-05-29T07:17:02.410Z,4.85
2018-05-29T07:19:30.762Z,4.53
2018-05-29T07:21:59.095Z,5.40
2018-05-29T07:24:27.409Z,10.63
2018-05-29T07:26:55.747Z,6.00
2018-05-29T07:29:24.093Z,9.25
2018-05-29T07:31:52.434Z,7.50
2018-05-29T07:34:20.753Z,9.15
2018-05-29T07:36:50.054Z,5.10
2018-05-29T07:39:19.148Z,6.23
2018-05-29T07:41:48.240Z,5.95
2018-05-29T07:44:16.555Z,7.10
2018-05-29T07:46:44.884Z,7.82
2018-05-29T07:49:13.190Z,6.45
2018-05-29T07:51:42.344Z,6.12
2018-05-29T07:54:10.663Z,7.12
2018-05-29T07:56:38.983Z,6.10
2018-05-29T07:59:07.317Z,7.55
2018-05-29T08:01:35.628Z,6.82
2018-05-29T08:04:03.961Z,6.97
2018-05-29T08:06:32.275Z,5.05
2018-05-29T08:09:01.361Z,6.18
2018-05-29T08:11:29.695Z,8.32
2018-05-29T08:13:58.049Z,7.75
2018-05-29T08:16:26.377Z,7.97
2018-05-29T08:18:54.713Z,6.78
2018-05-29T08:21:23.793Z,8.32
2018-05-29T08:23:52.890Z,5.43
2018-05-29T08:26:21.979Z,7.03
2018-05-29T08:28:50.396Z,6.12
2018-05-29T08:31:18.756Z,9.07
2018-05-29T08:33:47.067Z,5.07
2018-05-29T08:36:15.426Z,6.35
2018-05-29T08:38:44.518Z,5.75
2018-05-29T08:41:12.867Z,7.03
2018-05-29T08:43:41.455Z,6.47
2018-05-29T08:46:10.545Z,9.82
2018-05-29T08:48:40.162Z,6.50
2018-05-29T08:51:08.561Z,5.72
2018-05-29T08:53:37.351Z,6.82
2018-05-29T08:56:05.827Z,5.05
2018-05-29T08:58:35.869Z,7.07
2018-05-29T09:01:04.182Z,5.05
2018-05-29T09:03:33.727Z,6.05
2018-05-29T09:06:02.032Z,5.45
2018-05-29T09:08:30.351Z,4.57
2018-05-29T09:10:58.658Z,6.05
2018-05-29T09:13:26.989Z,8.23
2018-05-29T09:15:56.074Z,6.18
2018-05-29T09:18:24.438Z,5.80
2018-05-29T09:20:52.758Z,7.82
2018-05-29T09:23:21.846Z,5.70
2018-05-29T09:25:50.175Z,5.70
2018-05-29T09:28:18.499Z,5.20
2018-05-29T09:30:46.855Z,6.12
2018-05-29T09:33:15.202Z,5.43
2018-05-29T09:35:43.497Z,9.07
2018-05-29T09:38:12.685Z,5.80
2018-05-29T09:40:41.770Z,5.72
2018-05-29T09:43:10.839Z,9.95
2018-05-29T09:45:39.964Z,5.30
2018-05-29T09:48:09.066Z,5.50
2018-05-29T09:50:38.184Z,4.82
2018-05-29T09:53:06.494Z,7.25
2018-05-29T09:55:34.819Z,9.85
2018-05-29T09:58:03.147Z,5.53
2018-05-29T10:00:37.098Z,4.00
2018-05-29T10:03:05.434Z,5.40
2018-05-29T10:05:33.771Z,6.53
2018-05-29T10:08:02.100Z,8.00
2018-05-29T10:10:30.413Z,7.68
2018-05-29T10:12:58.753Z,8.45
2018-05-29T10:15:27.053Z,5.30
2018-05-29T10:17:55.404Z,7.97
2018-05-29T10:20:23.738Z,6.40
2018-05-29T10:22:52.088Z,6.43
2018-05-29T10:25:20.414Z,5.87
2018-05-29T10:27:48.748Z,6.50
2018-05-29T10:30:17.090Z,9.40
2018-05-29T10:32:46.175Z,7.18
2018-05-29T10:35:14.506Z,4.62
2018-05-29T10:37:42.825Z,6.60
2018-05-29T10:40:11.188Z,4.80
2018-05-29T10:42:39.524Z,8.55
2018-05-29T10:45:08.612Z,6.20
2018-05-29T10:47:37.724Z,4.68
2018-05-29T10:50:06.080Z,3.28
2018-05-29T10:52:34.438Z,6.90
2018-05-29T10:55:02.759Z,5.12
2018-05-29T10:57:31.060Z,6.15
2018-05-29T10:59:59.415Z,3.58
2018-05-29T11:02:27.747Z,5.90
2018-05-29T11:04:56.056Z,4.65
2018-05-29T11:07:24.393Z,5.05
2018-05-29T11:09:52.719Z,3.28
2018-05-29T11:12:21.052Z,5.83
2018-05-29T11:14:49.380Z,2.53
2018-05-29T11:17:17.700Z,3.87
2018-05-29T11:19:46.802Z,2.75
2018-05-29T11:22:15.935Z,3.28
2018-05-29T11:24:44.235Z,4.85
2018-05-29T11:27:12.582Z,5.25
2018-05-29T11:29:40.912Z,3.35
2018-05-29T11:32:09.233Z,5.75
2018-05-29T11:34:37.605Z,2.58
2018-05-29T11:37:06.668Z,3.85
2018-05-29T11:39:35.012Z,2.70
2018-05-29T11:42:03.319Z,3.70
2018-05-29T11:44:32.935Z,2.80
2018-05-29T11:47:01.462Z,6.22
2018-05-29T11:49:31.663Z,5.55
2018-05-29T11:52:00.889Z,6.20
2018-05-29T11:54:30.728Z,5.40
2018-05-29T11:56:59.249Z,4.32
2018-05-29T11:59:28.344Z,4.28
2018-05-29T12:01:56.649Z,2.62
2018-05-29T12:04:25.625Z,4.03
2018-05-29T12:06:54.003Z,6.45
2018-05-29T12:09:22.308Z,4.70
2018-05-29T12:11:50.636Z,7.22
2018-05-29T12:14:18.967Z,5.25
2018-05-29T12:16:47.311Z,3.83
2018-05-29T12:19:15.646Z,6.90
2018-05-29T12:21:44.770Z,3.20
2018-05-29T12:24:13.854Z,5.53
2018-05-29T12:26:42.934Z,6.28
2018-05-29T12:29:11.241Z,4.07
2018-05-29T12:31:40.352Z,3.50
2018-05-29T12:34:08.695Z,4.07
2018-05-29T12:36:37.018Z,4.32
2018-05-29T12:39:06.129Z,7.30
2018-05-29T12:41:34.471Z,5.45
2018-05-29T12:44:03.564Z,4.30
2018-05-29T12:46:32.658Z,3.97
2018-05-29T12:49:01.003Z,4.12
2018-05-29T12:51:29.311Z,4.28
2018-05-29T12:53:57.651Z,3.92
2018-05-29T12:56:25.971Z,6.97
2018-05-29T12:58:54.338Z,7.43
2018-05-29T13:01:22.660Z,5.47
2018-05-29T13:03:51.782Z,5.95
2018-05-29T13:06:20.110Z,2.60
2018-05-29T13:08:48.431Z,4.47
2018-05-29T13:11:17.553Z,5.65
2018-05-29T13:13:45.846Z,3.53
2018-05-29T13:16:14.204Z,3.37
2018-05-29T13:18:42.515Z,3.65
2018-05-29T13:21:11.770Z,4.22
2018-05-29T13:23:40.824Z,3.08
2018-05-29T13:26:09.159Z,6.18
2018-05-29T13:28:38.263Z,3.45
2018-05-29T13:31:06.608Z,4.43
2018-05-29T13:33:35.026Z,2.95
2018-05-29T13:36:03.363Z,3.65
2018-05-29T13:38:31.728Z,6.60
2018-05-29T13:41:00.069Z,4.32
2018-05-29T13:43:29.182Z,3.60
2018-05-29T13:45:57.531Z,4.37
2018-05-29T13:48:26.629Z,5.07
2018-05-29T13:50:55.751Z,2.97
2018-05-29T13:53:24.107Z,2.53
2018-05-29T13:55:52.434Z,3.25
2018-05-29T13:58:20.817Z,7.75
2018-05-29T14:00:49.131Z,4.57
2018-05-29T14:03:17.485Z,6.03
2018-05-29T14:05:45.821Z,8.82
2018-05-29T14:08:14.126Z,4.25
2018-05-29T14:10:42.499Z,5.65
2018-05-29T14:13:11.651Z,6.18
2018-05-29T14:15:40.009Z,5.22
2018-05-29T14:18:08.494Z,5.35
2018-05-29T14:20:36.863Z,5.10
2018-05-29T14:23:05.945Z,5.78
2018-05-29T14:25:35.095Z,5.25
2018-05-29T14:28:03.416Z,5.22
2018-05-29T14:30:32.570Z,4.03
2018-05-29T14:33:01.743Z,5.65
2018-05-29T14:35:30.143Z,3.17
2018-05-29T14:37:58.601Z,3.12
2018-05-29T14:40:27.578Z,3.42
2018-05-29T14:42:56.808Z,5.68
2018-05-29T14:45:26.268Z,6.23
2018-05-29T14:47:54.771Z,4.85
2018-05-29T14:50:24.870Z,4.32
2018-05-29T14:52:53.269Z,5.57
2018-05-29T14:55:21.611Z,4.97
2018-05-29T14:57:50.019Z,3.50
2018-05-29T15:00:18.721Z,6.27
2018-05-29T15:02:47.073Z,3.73
2018-05-29T15:05:15.459Z,4.50
2018-05-29T15:07:43.746Z,5.50
2018-05-29T15:10:12.089Z,6.90
2018-05-29T15:12:40.422Z,2.57
2018-05-29T15:15:08.767Z,7.93
2018-05-29T15:17:37.095Z,3.47
2018-05-29T15:20:05.450Z,7.40
2018-05-29T15:22:33.794Z,3.83
2018-05-29T15:25:02.127Z,4.50
2018-05-29T15:27:30.450Z,4.50
2018-05-29T15:29:59.520Z,7.40
2018-05-29T15:32:27.852Z,3.80
2018-05-29T15:34:56.196Z,3.60
2018-05-29T15:37:25.292Z,5.60
2018-05-29T15:39:55.082Z,5.83
2018-05-29T15:42:23.496Z,5.83
2018-05-29T15:44:52.586Z,8.83
2018-05-29T15:47:20.937Z,4.37
2018-05-29T15:49:49.269Z,7.00
2018-05-29T15:52:18.363Z,3.97
2018-05-29T15:54:47.529Z,5.87
2018-05-29T15:57:15.842Z,3.83
2018-05-29T15:59:44.934Z,5.67
2018-05-29T16:02:14.199Z,3.80
2018-05-29T16:04:42.535Z,2.90
2018-05-29T16:07:10.949Z,3.57
2018-05-29T16:09:40.059Z,4.10
2018-05-29T16:12:08.391Z,5.20
2018-05-29T16:14:37.648Z,3.53
2018-05-29T16:17:06.000Z,3.83
2018-05-29T16:19:34.401Z,4.97
2018-05-29T16:22:03.008Z,6.50
2018-05-29T16:24:31.340Z,4.33
2018-05-29T16:26:59.862Z,4.77
2018-05-29T16:29:28.225Z,3.60
2018-05-29T16:31:56.612Z,4.33
2018-05-29T16:34:24.996Z,4.40
2018-05-29T16:36:53.398Z,8.03
2018-05-29T16:39:21.803Z,10.23
2018-05-29T16:41:50.170Z,6.47
2018-05-29T16:44:18.508Z,3.37
2018-05-29T16:46:46.828Z,5.27
2018-05-29T16:49:15.272Z,4.07
2018-05-29T16:51:43.583Z,4.27
2018-05-29T16:54:13.026Z,6.35
2018-05-29T16:56:41.340Z,5.60
2018-05-29T16:59:10.459Z,4.83
2018-05-29T17:01:38.787Z,4.87
2018-05-29T17:04:07.103Z,6.23
2018-05-29T17:06:35.410Z,5.07
2018-05-29T17:09:03.746Z,5.53
2018-05-29T17:11:32.839Z,3.83
2018-05-29T17:14:01.187Z,6.10
2018-05-29T17:16:29.568Z,4.63
2018-05-29T17:18:57.953Z,4.73
2018-05-29T17:21:26.873Z,4.53
2018-05-29T17:23:55.460Z,6.00
2018-05-29T17:26:24.613Z,5.33
2018-05-29T17:28:52.945Z,3.60
2018-05-29T17:31:21.274Z,3.93
2018-05-29T17:33:49.600Z,7.13
2018-05-29T17:36:19.389Z,4.00
2018-05-29T17:38:47.768Z,2.13
2018-05-29T17:41:17.284Z,3.17
2018-05-29T17:43:45.603Z,4.23
2018-05-29T17:46:14.870Z,6.50
2018-05-29T17:48:43.494Z,4.43
2018-05-29T17:51:13.540Z,5.03
2018-05-29T17:53:41.914Z,7.63
2018-05-29T17:56:11.165Z,2.77
2018-05-29T17:58:39.716Z,2.93
2018-05-29T18:01:08.043Z,5.03
2018-05-29T18:03:36.574Z,4.10
2018-05-29T18:06:05.463Z,4.77
2018-05-29T18:08:34.299Z,5.67
2018-05-29T18:11:04.020Z,7.17
2018-05-29T18:13:33.192Z,4.37
2018-05-29T18:16:02.646Z,3.00
2018-05-29T18:18:32.964Z,4.87
2018-05-29T18:21:02.777Z,4.33
2018-05-29T18:23:31.394Z,5.63
2018-05-29T18:26:02.298Z,3.57
2018-05-29T18:28:30.883Z,7.33
2018-05-29T18:30:59.673Z,4.77
2018-05-29T18:33:28.875Z,5.90
2018-05-29T18:35:58.036Z,4.23
2018-05-29T18:38:26.431Z,4.23
2018-05-29T18:40:54.947Z,6.13
2018-05-29T18:43:24.282Z,6.30
2018-05-29T18:45:52.593Z,5.13
2018-05-29T18:48:20.946Z,3.37
2018-05-29T18:50:49.321Z,2.93
2018-05-29T18:53:18.468Z,3.57
2018-05-29T18:55:46.813Z,6.63
2018-05-29T18:58:15.896Z,7.77
2018-05-29T19:00:44.211Z,3.20
2018-05-29T19:03:12.569Z,4.33
2018-05-29T19:05:41.636Z,5.07
2018-05-29T19:08:09.993Z,7.77
2018-05-29T19:10:38.315Z,5.70
2018-05-29T19:13:06.691Z,6.37
2018-05-29T19:15:36.158Z,3.50
2018-05-29T19:18:05.429Z,4.53
2018-05-29T19:20:34.545Z,3.03
2018-05-29T19:23:03.166Z,2.47
2018-05-29T19:25:31.971Z,6.33
2018-05-29T19:28:00.457Z,5.77
2018-05-29T19:30:28.769Z,6.70
2018-05-29T19:32:57.181Z,5.00
2018-05-29T19:35:25.886Z,5.27
2018-05-29T19:37:54.236Z,2.77
2018-05-29T19:40:23.362Z,3.57
2018-05-29T19:42:51.689Z,7.20
2018-05-29T19:45:21.652Z,3.50
2018-05-29T19:47:50.055Z,3.33
2018-05-29T19:50:18.369Z,4.03
2018-05-29T19:52:46.690Z,8.03
2018-05-29T19:55:15.033Z,5.40
2018-05-29T19:57:43.369Z,2.47
2018-05-29T20:00:12.427Z,5.22
2018-05-29T20:02:40.827Z,5.13
2018-05-29T20:05:09.925Z,5.90
2018-05-29T20:07:39.071Z,9.17
2018-05-29T20:10:07.381Z,2.93
2018-05-29T20:12:35.720Z,3.10
2018-05-29T20:15:04.170Z,5.27
2018-05-29T20:17:33.736Z,3.80
2018-05-29T20:20:02.890Z,4.77
2018-05-29T20:22:32.004Z,5.93
2018-05-29T20:25:00.428Z,4.07
2018-05-29T20:27:28.770Z,3.33
2018-05-29T20:29:57.089Z,5.17
2018-05-29T20:32:25.408Z,3.37
2018-05-29T20:34:54.503Z,2.60
2018-05-29T20:37:23.595Z,4.37
2018-05-29T20:39:51.919Z,3.43
2018-05-29T20:42:20.560Z,3.23
2018-05-29T20:44:50.453Z,7.53
2018-05-29T20:47:19.855Z,5.63
2018-05-29T20:49:48.258Z,5.00
2018-05-29T20:52:16.628Z,6.77
2018-05-29T20:54:44.983Z,7.23
2018-05-29T20:57:13.323Z,7.83
2018-05-29T20:59:42.469Z,6.03
2018-05-29T21:02:11.967Z,3.70
2018-05-29T21:04:40.296Z,3.03
2018-05-29T21:07:08.617Z,6.43
2018-05-29T21:09:36.958Z,4.40
2018-05-29T21:12:05.304Z,5.17
2018-05-29T21:14:33.605Z,4.20
2018-05-29T21:17:02.082Z,4.87
2018-05-29T21:19:30.457Z,3.20
2018-05-29T21:21:58.817Z,3.13
2018-05-29T21:24:27.934Z,3.90
2018-05-29T21:26:56.812Z,2.93
2018-05-29T21:29:25.286Z,10.57
2018-05-29T21:31:53.633Z,3.07
2018-05-29T21:34:21.960Z,4.77
2018-05-29T21:36:50.305Z,7.03
2018-05-29T21:39:19.440Z,5.50
2018-05-29T21:41:47.760Z,3.17
2018-05-29T21:44:16.171Z,5.00
2018-05-29T21:46:44.547Z,2.77
2018-05-29T21:49:12.899Z,3.93
2018-05-29T21:51:41.234Z,5.00
2018-05-29T21:54:11.343Z,3.83
2018-05-29T21:56:39.693Z,4.93
2018-05-29T21:59:08.009Z,6.17
2018-05-29T22:01:37.075Z,2.80
2018-05-29T22:04:05.747Z,3.20
2018-05-29T22:06:34.063Z,4.23
2018-05-29T22:09:03.935Z,2.13
2018-05-29T22:11:32.300Z,4.47
2018-05-29T22:14:00.613Z,7.57
2018-05-29T22:16:28.967Z,7.00
2018-05-29T22:18:57.288Z,5.23
2018-05-29T22:21:25.649Z,2.50
2018-05-29T22:23:53.970Z,5.40
2018-05-29T22:26:22.298Z,3.80
2018-05-29T22:28:50.657Z,7.40
2018-05-29T22:31:19.757Z,4.00
2018-05-29T22:33:48.839Z,7.50
2018-05-29T22:36:17.948Z,3.67
2018-05-29T22:38:47.053Z,8.50
2018-05-29T22:41:16.139Z,7.13
2018-05-29T22:43:45.231Z,4.80
2018-05-29T22:46:13.569Z,4.60
2018-05-29T22:48:41.905Z,4.87
2018-05-29T22:51:10.219Z,4.43
2018-05-29T22:53:38.534Z,7.63
2018-05-29T22:56:06.846Z,4.03
2018-05-29T22:58:35.958Z,4.03
2018-05-29T23:01:05.046Z,3.33
2018-05-29T23:03:34.152Z,4.97
2018-05-29T23:06:03.226Z,5.70
2018-05-29T23:08:31.557Z,6.10
2018-05-29T23:10:59.909Z,3.83
2018-05-29T23:13:29.737Z,7.10
2018-05-29T23:15:58.059Z,5.67
2018-05-29T23:18:26.427Z,7.07
2018-05-29T23:20:54.751Z,4.83
2018-05-29T23:23:23.069Z,3.93
2018-05-29T23:25:52.160Z,2.63
2018-05-29T23:28:21.249Z,4.77
2018-05-29T23:30:50.359Z,3.40
2018-05-29T23:33:19.443Z,3.50
2018-05-29T23:35:48.523Z,7.67
2018-05-29T23:38:17.450Z,3.23
2018-05-29T23:40:45.763Z,4.80
2018-05-29T23:43:15.030Z,5.90
2018-05-29T23:45:43.449Z,3.97
2018-05-29T23:48:13.343Z,2.35
2018-05-29T23:50:41.828Z,4.60
2018-05-29T23:53:11.231Z,3.60
2018-05-29T23:55:39.563Z,4.03
2018-05-29T23:58:08.596Z,4.53
